createdAt,value
2022-11-28T00:04:51.413Z,3.02
2022-11-28T00:09:52.238Z,3.00
2022-11-28T00:14:53.258Z,3.02
2022-11-28T00:19:53.994Z,2.99
2022-11-28T00:24:55.439Z,2.92
2022-11-28T00:29:56.335Z,2.76
2022-11-28T00:34:57.102Z,2.80
2022-11-28T00:39:57.926Z,2.79
2022-11-28T00:44:58.730Z,2.99
2022-11-28T00:49:59.451Z,2.89
2022-11-28T00:55:00.580Z,2.82
2022-11-28T01:00:01.347Z,2.83
2022-11-28T01:05:02.291Z,2.76
2022-11-28T01:10:03.705Z,2.90
2022-11-28T01:15:07.280Z,2.95
2022-11-28T01:20:09.103Z,2.98
2022-11-28T01:25:10.034Z,2.73
2022-11-28T01:30:10.902Z,2.68
2022-11-28T01:35:11.921Z,2.78
2022-11-28T01:40:13.230Z,2.80
2022-11-28T01:45:20.911Z,2.80
2022-11-28T01:50:23.450Z,2.78
2022-11-28T01:55:28.624Z,2.78
2022-11-28T02:00:29.862Z,2.67
2022-11-28T02:05:30.740Z,2.53
2022-11-28T02:10:48.259Z,2.57
2022-11-28T02:17:40.478Z,2.58
2022-11-28T02:22:56.668Z,2.58
2022-11-28T02:28:35.280Z,2.48
2022-11-28T02:33:43.703Z,2.58
2022-11-28T02:45:44.317Z,2.43
2022-11-28T02:51:14.301Z,2.44
2022-11-28T02:56:15.274Z,2.24
2022-11-28T03:01:27.559Z,2.26
2022-11-28T03:07:48.482Z,2.21
2022-11-28T03:14:45.702Z,2.20
2022-11-28T03:20:01.099Z,2.22
2022-11-28T03:25:19.968Z,2.15
2022-11-28T03:30:32.302Z,2.12
2022-11-28T03:35:39.118Z,2.21
2022-11-28T03:40:45.116Z,2.25
2022-11-28T03:45:56.145Z,2.15
2022-11-28T03:51:15.747Z,2.10
2022-11-28T03:56:28.279Z,2.06
2022-11-28T04:01:35.530Z,2.08
2022-11-28T04:09:50.957Z,2.00
2022-11-28T04:14:57.359Z,2.10
2022-11-28T04:20:20.193Z,2.03
2022-11-28T04:25:23.415Z,2.09
2022-11-28T04:30:26.945Z,1.97
2022-11-28T04:35:32.641Z,1.79
2022-11-28T04:47:25.253Z,1.91
2022-11-28T04:52:37.825Z,1.94
2022-11-28T04:58:12.414Z,1.84
2022-11-28T05:03:13.336Z,1.84
2022-11-28T05:08:14.710Z,1.91
2022-11-28T05:13:16.002Z,1.88
2022-11-28T05:18:16.792Z,1.92
2022-11-28T05:23:17.740Z,1.86
2022-11-28T05:28:18.518Z,1.83
2022-11-28T05:33:19.241Z,1.81
2022-11-28T05:38:20.233Z,1.85
2022-11-28T05:43:21.076Z,1.79
2022-11-28T05:48:22.652Z,1.81
2022-11-28T05:53:23.706Z,1.71
2022-11-28T05:58:24.561Z,1.89
2022-11-28T06:03:25.342Z,2.04
2022-11-28T06:08:26.151Z,1.97
2022-11-28T06:13:27.211Z,1.90
2022-11-28T06:18:27.984Z,1.83
2022-11-28T06:23:29.111Z,1.82
2022-11-28T06:28:29.868Z,1.77
2022-11-28T06:33:30.721Z,1.91
2022-11-28T06:38:32.461Z,1.92
2022-11-28T06:43:34.086Z,1.78
2022-11-28T06:48:34.806Z,1.79
2022-11-28T06:53:35.861Z,1.81
2022-11-28T06:58:36.807Z,1.88
2022-11-28T07:03:38.796Z,1.87
2022-11-28T07:08:40.164Z,1.94
2022-11-28T07:13:42.105Z,1.95
2022-11-28T07:18:49.094Z,1.92
2022-11-28T07:23:51.556Z,1.97
2022-11-28T07:28:52.615Z,1.99
2022-11-28T07:33:53.391Z,2.06
2022-11-28T07:38:57.060Z,2.13
2022-11-28T07:44:00.268Z,2.22
2022-11-28T07:49:02.079Z,2.26
2022-11-28T07:54:04.402Z,2.25
2022-11-28T07:59:05.821Z,2.27
2022-11-28T08:04:09.172Z,2.20
2022-11-28T08:09:13.345Z,2.13
2022-11-28T08:14:14.207Z,2.16
2022-11-28T08:19:15.301Z,2.15
2022-11-28T08:24:16.274Z,2.16
2022-11-28T08:29:17.064Z,2.28
2022-11-28T08:34:17.805Z,2.36
2022-11-28T08:39:26.497Z,2.53
2022-11-28T08:44:30.234Z,2.52
2022-11-28T08:49:31.907Z,2.67
2022-11-28T08:54:32.932Z,2.68
2022-11-28T08:59:33.721Z,2.73
2022-11-28T09:04:34.453Z,2.70
2022-11-28T09:09:35.242Z,2.77
2022-11-28T09:14:37.019Z,2.75
2022-11-28T09:19:38.508Z,2.75
2022-11-28T09:24:39.344Z,2.86
2022-11-28T09:29:40.496Z,2.88
2022-11-28T09:34:41.493Z,2.90
2022-11-28T09:40:04.932Z,2.93
2022-11-28T09:45:24.470Z,3.02
2022-11-28T09:50:30.457Z,3.21
2022-11-28T09:55:41.150Z,3.24
2022-11-28T10:01:15.265Z,3.28
2022-11-28T10:06:53.208Z,3.28
2022-11-28T10:12:42.961Z,3.37
2022-11-28T10:19:20.309Z,3.58
2022-11-28T10:24:54.702Z,3.64
2022-11-28T10:30:05.919Z,3.78
2022-11-28T10:35:25.159Z,3.66
2022-11-28T10:41:06.813Z,3.56
2022-11-28T10:54:13.688Z,3.53
2022-11-28T10:59:56.989Z,3.71
2022-11-28T11:04:57.824Z,3.63
2022-11-28T11:10:14.001Z,3.64
2022-11-28T11:15:41.347Z,3.60
2022-11-28T11:20:42.497Z,3.68
2022-11-28T11:25:54.864Z,3.73
2022-11-28T11:31:14.563Z,3.78
2022-11-28T11:36:34.960Z,3.85
2022-11-28T11:41:38.007Z,3.90
2022-11-28T11:47:02.044Z,3.99
2022-11-28T11:52:25.474Z,3.89
2022-11-28T12:00:11.113Z,3.98
2022-11-28T12:05:20.264Z,4.21
2022-11-28T12:10:25.735Z,4.38
2022-11-28T12:15:55.662Z,4.28
2022-11-28T12:21:33.893Z,4.28
2022-11-28T12:26:51.268Z,4.40
2022-11-28T12:32:24.211Z,4.35
2022-11-28T12:38:35.625Z,4.04
2022-11-28T12:45:29.854Z,3.94
2022-11-28T12:50:39.227Z,3.97
2022-11-28T12:57:26.531Z,3.89
2022-11-28T13:02:52.620Z,4.03
2022-11-28T13:08:52.296Z,3.89
2022-11-28T13:14:12.840Z,3.95
2022-11-28T13:22:22.812Z,3.86
2022-11-28T13:27:48.233Z,3.93
2022-11-28T13:33:29.803Z,3.94
2022-11-28T13:40:17.835Z,4.04
2022-11-28T13:45:32.489Z,4.10
2022-11-28T13:50:39.084Z,4.10
2022-11-28T13:55:45.751Z,4.21
2022-11-28T14:01:04.205Z,4.28
2022-11-28T14:06:06.682Z,4.29
2022-11-28T14:11:39.841Z,4.25
2022-11-28T14:20:32.397Z,4.34
2022-11-28T14:25:40.767Z,4.40
2022-11-28T14:30:45.139Z,4.44
2022-11-28T14:36:52.720Z,4.44
2022-11-28T14:43:20.268Z,4.81
2022-11-28T14:48:31.447Z,5.29
2022-11-28T14:53:51.138Z,4.76
2022-11-28T14:58:56.430Z,4.51
2022-11-28T15:04:22.306Z,4.36
2022-11-28T15:09:38.104Z,4.34
2022-11-28T15:14:39.811Z,4.23
2022-11-28T15:19:47.430Z,4.24
2022-11-28T15:24:51.866Z,4.24
2022-11-28T15:30:00.896Z,4.23
2022-11-28T15:35:10.825Z,4.26
2022-11-28T15:40:34.997Z,4.30
2022-11-28T15:45:37.029Z,4.24
2022-11-28T15:50:49.864Z,4.22
2022-11-28T15:56:14.339Z,4.28
2022-11-28T16:01:36.695Z,4.21
2022-11-28T16:06:40.547Z,4.22
2022-11-28T16:11:44.275Z,4.25
2022-11-28T16:16:45.525Z,4.27
2022-11-28T16:21:53.481Z,4.26
2022-11-28T16:27:08.771Z,4.23
2022-11-28T16:32:22.652Z,4.33
2022-11-28T16:37:26.507Z,4.36
2022-11-28T16:42:27.649Z,4.38
2022-11-28T16:47:30.301Z,4.44
2022-11-28T16:52:50.774Z,4.46
2022-11-28T16:57:56.224Z,4.60
2022-11-28T17:02:56.965Z,4.69
2022-11-28T17:08:00.879Z,4.85
2022-11-28T17:13:01.610Z,4.96
2022-11-28T17:18:02.781Z,5.03
2022-11-28T17:23:03.840Z,5.01
2022-11-28T17:28:04.617Z,5.06
2022-11-28T17:33:05.353Z,4.88
2022-11-28T17:38:06.426Z,4.81
2022-11-28T17:43:15.810Z,4.83
2022-11-28T17:48:17.364Z,4.78
2022-11-28T17:53:20.549Z,4.79
2022-11-28T17:58:25.900Z,4.87
2022-11-28T18:03:28.395Z,4.78
2022-11-28T18:08:29.547Z,4.74
2022-11-28T18:13:31.185Z,4.67
2022-11-28T18:18:32.373Z,4.71
2022-11-28T18:23:38.869Z,4.68
2022-11-28T18:28:40.742Z,4.44
2022-11-28T18:33:42.514Z,4.48
2022-11-28T18:38:45.164Z,4.45
2022-11-28T18:43:46.116Z,4.53
2022-11-28T18:48:47.143Z,4.56
2022-11-28T18:53:49.592Z,4.57
2022-11-28T18:58:52.365Z,4.64
2022-11-28T19:03:59.404Z,4.72
2022-11-28T19:09:03.328Z,4.80
2022-11-28T19:14:06.117Z,4.75
2022-11-28T19:19:07.012Z,4.76
2022-11-28T19:24:11.521Z,4.70
2022-11-28T19:29:12.417Z,4.74
2022-11-28T19:34:16.632Z,4.78
2022-11-28T19:39:21.865Z,4.73
2022-11-28T19:44:23.997Z,4.72
2022-11-28T19:49:25.681Z,4.78
2022-11-28T19:54:26.597Z,4.86
2022-11-28T19:59:30.476Z,4.86
2022-11-28T20:04:31.785Z,4.88
2022-11-28T20:09:32.594Z,4.91
2022-11-28T20:14:33.466Z,4.89
2022-11-28T20:19:34.413Z,4.83
2022-11-28T20:24:35.175Z,4.83
2022-11-28T20:29:36.230Z,4.87
2022-11-28T20:34:37.231Z,4.94
2022-11-28T20:39:39.403Z,4.99
2022-11-28T20:44:40.134Z,4.98
2022-11-28T20:49:41.298Z,5.02
2022-11-28T20:54:42.284Z,5.08
2022-11-28T20:59:43.452Z,5.13
2022-11-28T21:04:44.455Z,5.14
2022-11-28T21:09:45.555Z,5.15
2022-11-28T21:14:46.508Z,5.18
2022-11-28T21:19:47.543Z,5.19
2022-11-28T21:24:49.783Z,5.42
2022-11-28T21:29:51.535Z,5.36
2022-11-28T21:34:52.826Z,5.33
2022-11-28T21:39:53.816Z,5.26
2022-11-28T21:44:54.641Z,5.19
2022-11-28T21:49:55.743Z,5.12
2022-11-28T21:54:56.578Z,5.08
2022-11-28T21:59:57.427Z,5.10
2022-11-28T22:04:59.207Z,5.11
2022-11-28T22:10:00.287Z,5.13
2022-11-28T22:15:01.213Z,5.12
2022-11-28T22:20:04.336Z,5.13
2022-11-28T22:25:06.127Z,5.18
2022-11-28T22:30:08.935Z,5.18
2022-11-28T22:35:09.685Z,5.09
2022-11-28T22:40:11.955Z,5.02
2022-11-28T22:45:12.893Z,5.03
2022-11-28T22:50:14.032Z,4.98
2022-11-28T22:55:14.967Z,5.01
2022-11-28T23:00:16.492Z,4.99
2022-11-28T23:05:17.715Z,4.91
2022-11-28T23:10:18.570Z,4.89
2022-11-28T23:15:19.356Z,4.90
2022-11-28T23:20:21.484Z,4.90
2022-11-28T23:25:22.196Z,4.81
2022-11-28T23:30:26.423Z,4.80
2022-11-28T23:35:27.155Z,4.88
2022-11-28T23:40:28.512Z,4.94
2022-11-28T23:45:29.314Z,4.98
2022-11-28T23:50:31.161Z,5.05
2022-11-28T23:55:33.124Z,4.98
